sensor_id;sensor_type;location;lat;lon;timestamp;P1;durP1;ratioP1;P2;durP2;ratioP2
28068;SDS011;15382;47.578;8.086;2023-04-24T00:02:44;1.90;;;0.90;;
28068;SDS011;15382;47.578;8.086;2023-04-24T00:12:46;2.35;;;0.80;;
28068;SDS011;15382;47.578;8.086;2023-04-24T00:22:48;1.90;;;1.00;;
28068;SDS011;15382;47.578;8.086;2023-04-24T00:32:48;1.77;;;0.97;;
28068;SDS011;15382;47.578;8.086;2023-04-24T00:42:49;4.30;;;1.10;;
28068;SDS011;15382;47.578;8.086;2023-04-24T00:52:50;1.70;;;1.05;;
28068;SDS011;15382;47.578;8.086;2023-04-24T01:02:51;3.40;;;0.93;;
28068;SDS011;15382;47.578;8.086;2023-04-24T01:12:53;1.27;;;0.93;;
28068;SDS011;15382;47.578;8.086;2023-04-24T01:22:54;1.60;;;1.20;;
28068;SDS011;15382;47.578;8.086;2023-04-24T01:32:57;1.67;;;1.20;;
28068;SDS011;15382;47.578;8.086;2023-04-24T01:42:59;2.78;;;1.50;;
28068;SDS011;15382;47.578;8.086;2023-04-24T01:53:00;2.10;;;1.23;;
28068;SDS011;15382;47.578;8.086;2023-04-24T02:03:01;2.30;;;1.10;;
28068;SDS011;15382;47.578;8.086;2023-04-24T02:13:02;5.13;;;0.97;;
28068;SDS011;15382;47.578;8.086;2023-04-24T02:23:02;2.73;;;0.70;;
28068;SDS011;15382;47.578;8.086;2023-04-24T02:33:03;1.53;;;0.70;;
28068;SDS011;15382;47.578;8.086;2023-04-24T02:43:04;0.60;;;0.50;;
28068;SDS011;15382;47.578;8.086;2023-04-24T02:53:05;2.53;;;0.50;;
28068;SDS011;15382;47.578;8.086;2023-04-24T03:03:06;1.20;;;0.40;;
28068;SDS011;15382;47.578;8.086;2023-04-24T03:13:07;0.70;;;0.40;;
28068;SDS011;15382;47.578;8.086;2023-04-24T03:23:08;0.50;;;0.40;;
28068;SDS011;15382;47.578;8.086;2023-04-24T03:33:10;1.65;;;0.60;;
28068;SDS011;15382;47.578;8.086;2023-04-24T03:43:18;1.92;;;1.75;;
28068;SDS011;15382;47.578;8.086;2023-04-24T03:53:20;0.75;;;0.57;;
28068;SDS011;15382;47.578;8.086;2023-04-24T04:13:23;3.72;;;0.77;;
28068;SDS011;15382;47.578;8.086;2023-04-24T04:23:24;3.83;;;1.23;;
28068;SDS011;15382;47.578;8.086;2023-04-24T04:33:51;3.83;;;1.10;;
28068;SDS011;15382;47.578;8.086;2023-04-24T04:53:54;3.97;;;1.20;;
28068;SDS011;15382;47.578;8.086;2023-04-24T05:03:55;7.00;;;1.80;;
28068;SDS011;15382;47.578;8.086;2023-04-24T05:13:56;5.93;;;1.98;;
28068;SDS011;15382;47.578;8.086;2023-04-24T05:24:06;4.97;;;2.25;;
28068;SDS011;15382;47.578;8.086;2023-04-24T05:34:22;6.07;;;2.20;;
28068;SDS011;15382;47.578;8.086;2023-04-24T05:44:27;7.40;;;2.67;;
28068;SDS011;15382;47.578;8.086;2023-04-24T05:54:28;10.20;;;3.40;;
28068;SDS011;15382;47.578;8.086;2023-04-24T06:04:30;4.82;;;2.97;;
28068;SDS011;15382;47.578;8.086;2023-04-24T06:14:32;5.65;;;2.90;;
28068;SDS011;15382;47.578;8.086;2023-04-24T06:24:56;12.75;;;7.15;;
28068;SDS011;15382;47.578;8.086;2023-04-24T06:34:58;9.40;;;4.88;;
28068;SDS011;15382;47.578;8.086;2023-04-24T06:44:59;8.97;;;3.63;;
28068;SDS011;15382;47.578;8.086;2023-04-24T06:55:00;6.90;;;4.37;;
28068;SDS011;15382;47.578;8.086;2023-04-24T07:05:04;1.63;;;0.90;;
28068;SDS011;15382;47.578;8.086;2023-04-24T07:15:05;1.73;;;1.27;;
28068;SDS011;15382;47.578;8.086;2023-04-24T07:25:08;3.42;;;1.80;;
28068;SDS011;15382;47.578;8.086;2023-04-24T07:45:09;4.88;;;2.67;;
28068;SDS011;15382;47.578;8.086;2023-04-24T07:55:10;4.30;;;2.60;;
28068;SDS011;15382;47.578;8.086;2023-04-24T08:05:11;6.53;;;2.90;;
28068;SDS011;15382;47.578;8.086;2023-04-24T08:15:12;8.87;;;3.17;;
28068;SDS011;15382;47.578;8.086;2023-04-24T08:25:13;7.97;;;3.43;;
28068;SDS011;15382;47.578;8.086;2023-04-24T08:35:14;11.27;;;4.23;;
28068;SDS011;15382;47.578;8.086;2023-04-24T08:45:14;7.07;;;3.13;;
28068;SDS011;15382;47.578;8.086;2023-04-24T08:55:16;6.00;;;2.80;;
28068;SDS011;15382;47.578;8.086;2023-04-24T09:05:18;5.05;;;2.10;;
28068;SDS011;15382;47.578;8.086;2023-04-24T09:15:21;10.48;;;2.10;;
28068;SDS011;15382;47.578;8.086;2023-04-24T09:25:22;6.57;;;2.10;;
28068;SDS011;15382;47.578;8.086;2023-04-24T09:35:33;4.83;;;1.90;;
28068;SDS011;15382;47.578;8.086;2023-04-24T09:45:35;11.77;;;4.65;;
28068;SDS011;15382;47.578;8.086;2023-04-24T09:55:41;5.00;;;2.20;;
28068;SDS011;15382;47.578;8.086;2023-04-24T10:05:46;4.88;;;2.72;;
28068;SDS011;15382;47.578;8.086;2023-04-24T10:15:47;4.10;;;1.98;;
28068;SDS011;15382;47.578;8.086;2023-04-24T10:25:49;3.78;;;1.80;;
28068;SDS011;15382;47.578;8.086;2023-04-24T10:35:51;8.70;;;1.90;;
28068;SDS011;15382;47.578;8.086;2023-04-24T11:06:06;7.10;;;1.38;;
28068;SDS011;15382;47.578;8.086;2023-04-24T11:26:19;10.77;;;4.45;;
28068;SDS011;15382;47.578;8.086;2023-04-24T11:36:24;10.75;;;5.03;;
28068;SDS011;15382;47.578;8.086;2023-04-24T11:46:27;6.43;;;2.08;;
28068;SDS011;15382;47.578;8.086;2023-04-24T11:56:29;2.92;;;2.10;;
28068;SDS011;15382;47.578;8.086;2023-04-24T12:06:30;5.77;;;1.90;;
28068;SDS011;15382;47.578;8.086;2023-04-24T12:16:32;5.80;;;2.00;;
28068;SDS011;15382;47.578;8.086;2023-04-24T12:26:33;2.63;;;1.60;;
28068;SDS011;15382;47.578;8.086;2023-04-24T12:36:35;4.20;;;1.50;;
28068;SDS011;15382;47.578;8.086;2023-04-24T12:56:36;9.20;;;1.77;;
28068;SDS011;15382;47.578;8.086;2023-04-24T13:06:39;2.88;;;1.90;;
28068;SDS011;15382;47.578;8.086;2023-04-24T13:16:40;3.63;;;1.40;;
28068;SDS011;15382;47.578;8.086;2023-04-24T13:26:41;3.03;;;2.00;;
28068;SDS011;15382;47.578;8.086;2023-04-24T13:36:41;3.93;;;2.00;;
28068;SDS011;15382;47.578;8.086;2023-04-24T13:46:43;7.83;;;2.07;;
28068;SDS011;15382;47.578;8.086;2023-04-24T13:56:45;2.00;;;1.70;;
28068;SDS011;15382;47.578;8.086;2023-04-24T14:06:45;3.10;;;1.73;;
28068;SDS011;15382;47.578;8.086;2023-04-24T14:16:46;15.43;;;2.50;;
28068;SDS011;15382;47.578;8.086;2023-04-24T14:26:47;4.30;;;1.87;;
28068;SDS011;15382;47.578;8.086;2023-04-24T14:36:48;5.80;;;1.77;;
28068;SDS011;15382;47.578;8.086;2023-04-24T14:46:49;6.77;;;2.30;;
28068;SDS011;15382;47.578;8.086;2023-04-24T14:56:50;4.67;;;1.63;;
28068;SDS011;15382;47.578;8.086;2023-04-24T15:06:51;4.37;;;1.83;;
28068;SDS011;15382;47.578;8.086;2023-04-24T15:16:53;3.67;;;1.80;;
28068;SDS011;15382;47.578;8.086;2023-04-24T15:26:54;4.83;;;1.77;;
28068;SDS011;15382;47.578;8.086;2023-04-24T15:36:56;2.13;;;1.52;;
28068;SDS011;15382;47.578;8.086;2023-04-24T15:46:56;5.20;;;1.90;;
28068;SDS011;15382;47.578;8.086;2023-04-24T15:57:00;9.10;;;4.75;;
28068;SDS011;15382;47.578;8.086;2023-04-24T16:07:01;5.53;;;2.93;;
28068;SDS011;15382;47.578;8.086;2023-04-24T16:17:01;14.70;;;6.47;;
28068;SDS011;15382;47.578;8.086;2023-04-24T16:27:02;22.33;;;7.63;;
28068;SDS011;15382;47.578;8.086;2023-04-24T16:37:03;19.87;;;7.03;;
28068;SDS011;15382;47.578;8.086;2023-04-24T16:47:05;4.18;;;2.17;;
28068;SDS011;15382;47.578;8.086;2023-04-24T16:57:06;4.35;;;2.22;;
28068;SDS011;15382;47.578;8.086;2023-04-24T17:07:07;3.60;;;1.30;;
28068;SDS011;15382;47.578;8.086;2023-04-24T17:17:08;3.77;;;1.77;;
28068;SDS011;15382;47.578;8.086;2023-04-24T17:27:09;3.10;;;2.07;;
28068;SDS011;15382;47.578;8.086;2023-04-24T17:37:10;3.30;;;1.60;;
28068;SDS011;15382;47.578;8.086;2023-04-24T17:47:11;3.20;;;1.90;;
28068;SDS011;15382;47.578;8.086;2023-04-24T17:57:12;4.07;;;2.00;;
28068;SDS011;15382;47.578;8.086;2023-04-24T18:07:13;5.00;;;2.00;;
28068;SDS011;15382;47.578;8.086;2023-04-24T18:17:14;3.67;;;1.87;;
28068;SDS011;15382;47.578;8.086;2023-04-24T18:27:14;5.03;;;2.13;;
28068;SDS011;15382;47.578;8.086;2023-04-24T18:37:15;8.37;;;2.00;;
28068;SDS011;15382;47.578;8.086;2023-04-24T18:47:16;6.97;;;1.87;;
28068;SDS011;15382;47.578;8.086;2023-04-24T18:57:17;3.80;;;2.30;;
28068;SDS011;15382;47.578;8.086;2023-04-24T19:07:18;9.40;;;3.27;;
28068;SDS011;15382;47.578;8.086;2023-04-24T19:17:18;13.83;;;5.17;;
28068;SDS011;15382;47.578;8.086;2023-04-24T19:27:23;6.32;;;3.00;;
28068;SDS011;15382;47.578;8.086;2023-04-24T19:37:24;4.40;;;2.20;;
28068;SDS011;15382;47.578;8.086;2023-04-24T19:47:25;6.23;;;1.90;;
28068;SDS011;15382;47.578;8.086;2023-04-24T19:57:26;7.90;;;2.20;;
28068;SDS011;15382;47.578;8.086;2023-04-24T20:07:27;3.33;;;2.10;;
28068;SDS011;15382;47.578;8.086;2023-04-24T20:17:27;3.23;;;2.13;;
28068;SDS011;15382;47.578;8.086;2023-04-24T20:27:28;4.73;;;2.67;;
28068;SDS011;15382;47.578;8.086;2023-04-24T20:37:29;5.47;;;1.90;;
28068;SDS011;15382;47.578;8.086;2023-04-24T20:47:30;3.90;;;2.43;;
28068;SDS011;15382;47.578;8.086;2023-04-24T20:57:31;5.57;;;2.33;;
28068;SDS011;15382;47.578;8.086;2023-04-24T21:07:31;6.83;;;2.60;;
28068;SDS011;15382;47.578;8.086;2023-04-24T21:17:32;8.07;;;2.30;;
28068;SDS011;15382;47.578;8.086;2023-04-24T21:27:33;9.90;;;4.17;;
28068;SDS011;15382;47.578;8.086;2023-04-24T21:47:36;13.40;;;3.27;;
28068;SDS011;15382;47.578;8.086;2023-04-24T21:57:37;9.77;;;2.80;;
28068;SDS011;15382;47.578;8.086;2023-04-24T22:07:39;6.00;;;3.05;;
28068;SDS011;15382;47.578;8.086;2023-04-24T22:27:41;6.07;;;2.80;;
28068;SDS011;15382;47.578;8.086;2023-04-24T22:37:42;4.93;;;2.60;;
28068;SDS011;15382;47.578;8.086;2023-04-24T22:47:42;3.63;;;2.43;;
28068;SDS011;15382;47.578;8.086;2023-04-24T22:57:43;4.33;;;2.53;;
28068;SDS011;15382;47.578;8.086;2023-04-24T23:07:44;6.90;;;2.27;;
28068;SDS011;15382;47.578;8.086;2023-04-24T23:17:45;11.13;;;2.40;;
28068;SDS011;15382;47.578;8.086;2023-04-24T23:27:47;8.43;;;2.53;;
28068;SDS011;15382;47.578;8.086;2023-04-24T23:37:47;5.47;;;2.67;;
28068;SDS011;15382;47.578;8.086;2023-04-24T23:47:48;7.20;;;3.17;;
28068;SDS011;15382;47.578;8.086;2023-04-24T23:57:50;6.80;;;3.03;;
